Weston-Spr-Mare, United Kingdom
Current Conditions -  °F | °C
As of 2:50 PM on Monday 24 Nov 2014 (Local Time) from EGGD Reporting Station
Few Clouds Few Clouds  
Wind Chill: 45°   Ceiling: Unl
Heat Index: 45°   Visibility: 6mi
Dew Point: 37°   Wind: 3mph
Humidity: 76%   Direction: NA
Pressure: 30.3"   Gusts: NA
Location:  51.33°N, 2.98°W
Report Text: EGGD 241450Z VRB03KT 9999 FEW018 07/03 Q1026
Loading
Personal Weather Stations






























Interactive Weather Map New forecast layout! Learn more

10-Day Weather Forecast

Advertisements
Track Severe Weather on mobile